• Join FlightAware (Why Join?)
  • Login
  • US Flag 
07:04PM EST


 

Airport Tracker/Info


-or-


 

Live Flight TrackerFlight Track Log ✈ DLH3 ✈ 30-Jun-2014 ✈ EDDH / HAM - EDDF / FRA

Flight Track Log - Related Links

Times and Time Zones

All times are in EDT time to prevent confusion due to time zone crossing. See the DLH3 flight status page for this flight to view local times or setup timezone preferences in your user account.

Time Position Orientation Groundspeed Altitude Reporting Facility
EDT Latitude Longitude Course Direction KTS MPH feet Rate Location/Type
12:41AM 53.2793 9.8365 194° South  Level Estimated
12:42AM 53.1915 9.7990 194° South  Level Estimated
12:43AM 53.1037 9.7616 194° South  Level Estimated
12:44AM 53.0159 9.7244 194° South  Level Estimated
12:45AM 52.9281 9.6873 194° South  Level Estimated
12:46AM 52.8402 9.6504 194° South  Level Estimated
12:47AM 52.7524 9.6136 194° South  Level Estimated
12:48AM 52.6645 9.5770 194° South  Level Estimated
12:49AM 52.5766 9.5405 194° South  Level Estimated
12:50AM 52.4887 9.5042 194° South  Level Estimated
12:51AM 52.4008 9.4680 194° South  Level Estimated
12:52AM 52.3129 9.4319 194° South  Level Estimated
12:53AM 52.2250 9.3960 194° South  Level Estimated
12:54AM 52.1371 9.3603 194° South  Level Estimated
12:55AM 52.0491 9.3246 194° South  Level Estimated
12:56AM 51.9612 9.2892 194° South  Level Estimated
12:57AM 51.8732 9.2538 194° South  Level Estimated
12:58AM 51.7852 9.2186 194° South  Level Estimated
12:59AM 51.6973 9.1835 194° South  Level Estimated
01:00AM 51.6093 9.1486 194° South  Level Estimated
01:01AM 51.5213 9.1138 194° South  Level Estimated
01:02AM 51.4332 9.0792 194° South  Level Estimated
01:03AM 51.3452 9.0446 194° South  Level Estimated
01:04AM 51.2572 9.0102 194° South  Level Estimated
01:05AM 51.1691 8.9760 194° South  Level Estimated
01:06AM 51.0811 8.9418 194° South  Level Estimated
01:07AM 50.9930 8.9078 194° South  Level Estimated
01:08AM 50.9049 8.8740 194° South  Level Estimated
01:09AM 50.8168 8.8402 194° South  Level Estimated
01:10AM 50.7287 8.8066 194° South  Level Estimated
01:11AM 50.6406 8.7731 194° South  Level Estimated
01:12AM 50.5525 8.7397 194° South  Level Estimated
01:13AM 50.4644 8.7065 194° South  Level Estimated
01:14AM 50.3763 8.6734 193° South  Level Estimated
01:15AM 50.2881 8.6404 193° South  Level Estimated
01:16AM 50.2000 8.6075 193° South  Level Estimated
01:17AM 50.1118 8.5747 193° South  Level Estimated
01:18AM 50.0264 8.5431 193° South  Level Estimated
01:19AM 50.0264 8.5431 North  Level Estimated
01:20AM 50.0264 8.5431 North  Level Estimated
01:21AM 50.0264 8.5431 North  Level Estimated
01:22AM 50.0264 8.5431 North  Level Estimated
01:23AM 50.0264 8.5431 North  Level Estimated
01:24AM 50.0264 8.5431 North  Level Estimated
01:25AM 50.0264 8.5431 North  Level Estimated
01:26AM 50.0264 8.5431 North  Level Estimated
01:27AM 50.0264 8.5431 North  Level Estimated
01:28AM 50.0264 8.5431 North  Level Estimated
01:29AM 50.0264 8.5431 North  Level Estimated
01:30AM 50.0264 8.5431 North  Level Estimated
01:31AM 50.0264 8.5431 North  Level Estimated
01:32AM 50.0264 8.5431 North  Level Estimated
01:33AM 50.0264 8.5431 North  Level Estimated
01:34AM 50.0264 8.5431 North  Level Estimated